Time;durP1;ratioP1;P1;durP2;ratioP2;P2;SDS_P1;SDS_P2;PMS_P1;PMS_P2;Temp;Humidity;BMP_temperature;BMP_pressure;BME280_temperature;BME280_humidity;BME280_pressure;Samples;Min_cycle;Max_cycle;Signal;HPM_P1;HPM_P2
2021/12/18 00:02:00;;;;;;;0.00;0.00;;;;;;;10.00;68.51;103379.09;7370368;19;20011;-58
2021/12/18 00:04:25;;;;;;;0.00;0.00;;;;;;;10.01;68.20;103374.75;7366235;19;20014;-58
2021/12/18 00:06:51;;;;;;;0.00;0.00;;;;;;;9.99;68.31;103366.03;7367928;19;20025;-57
2021/12/18 00:09:16;;;;;;;0.00;0.00;;;;;;;9.99;68.60;103372.13;7361907;19;20006;-59
2021/12/18 00:11:42;;;;;;;0.00;0.00;;;;;;;10.00;68.45;103373.00;7366457;19;20044;-58
2021/12/18 00:14:07;;;;;;;0.00;0.00;;;;;;;9.97;68.86;103371.19;7362346;19;20042;-57
2021/12/18 00:16:33;;;;;;;0.00;0.00;;;;;;;9.99;68.60;103371.25;7365187;19;20033;-58
2021/12/18 00:18:58;;;;;;;0.00;0.00;;;;;;;9.86;68.50;103344.84;7363661;19;20002;-58
2021/12/18 00:21:25;;;;;;;0.10;0.10;;;;;;;9.99;68.59;103377.34;7367575;19;20011;-58
2021/12/18 00:23:51;;;;;;;0.00;0.00;;;;;;;9.87;68.61;103358.78;7367449;19;20018;-58
2021/12/18 00:26:18;;;;;;;0.10;0.10;;;;;;;9.94;68.88;103373.75;7369934;19;20633;-58
2021/12/18 00:28:44;;;;;;;0.00;0.00;;;;;;;9.97;68.36;103373.81;7368453;19;20021;-58
2021/12/18 00:31:10;;;;;;;0.00;0.00;;;;;;;9.97;68.30;103373.81;7367038;19;20097;-58
2021/12/18 00:33:36;;;;;;;0.00;0.00;;;;;;;9.97;68.55;103362.50;7366339;19;20019;-58
2021/12/18 00:36:02;;;;;;;0.00;0.00;;;;;;;9.98;68.80;103369.47;7370514;19;20006;-56
2021/12/18 00:38:30;;;;;;;0.00;0.00;;;;;;;9.97;68.95;103371.19;7367697;19;20009;-57
2021/12/18 00:41:14;;;;;;;0.00;0.00;;;;;;;9.92;68.66;103351.94;7346763;19;20463;-58
2021/12/18 00:46:25;;;;;;;0.00;0.00;;;;;;;10.01;68.70;103364.31;7365200;19;20025;-59
2021/12/18 00:48:51;;;;;;;0.05;0.05;;;;;;;9.87;69.07;103335.28;7363656;19;20014;-57
2021/12/18 00:51:17;;;;;;;0.00;0.00;;;;;;;10.01;69.07;103352.16;7365970;19;20045;-59
2021/12/18 00:53:42;;;;;;;0.00;0.00;;;;;;;10.02;68.77;103358.25;7363948;19;20015;-58
2021/12/18 00:56:08;;;;;;;0.00;0.00;;;;;;;9.94;69.10;103334.59;7365554;19;20098;-58
2021/12/18 00:58:33;;;;;;;0.00;0.00;;;;;;;10.00;68.69;103350.41;7365592;19;20035;-59
2021/12/18 01:00:59;;;;;;;0.08;0.08;;;;;;;10.00;68.74;103342.56;7359648;19;20041;-58
2021/12/18 01:03:24;;;;;;;0.10;0.10;;;;;;;10.00;68.96;103355.63;7365145;19;20018;-58
2021/12/18 01:05:50;;;;;;;0.00;0.00;;;;;;;10.00;68.93;103342.56;7363919;19;20010;-57
2021/12/18 01:08:16;;;;;;;0.10;0.10;;;;;;;10.00;69.10;103339.06;7365185;19;20014;-58
2021/12/18 01:13:16;;;;;;;0.00;0.00;;;;;;;9.93;68.95;103324.97;7362559;19;20003;-58
2021/12/18 01:15:48;;;;;;;0.00;0.00;;;;;;;9.85;68.97;103310.91;7358213;19;20050;-59
2021/12/18 01:23:42;;;;;;;0.00;0.00;;;;;;;9.95;68.73;103328.53;7365755;19;20082;-57
2021/12/18 01:26:07;;;;;;;0.00;0.00;;;;;;;9.93;68.55;103332.81;7363143;19;20085;-58
2021/12/18 01:28:33;;;;;;;0.00;0.00;;;;;;;9.91;68.69;103331.91;7364611;19;20022;-58
2021/12/18 01:31:00;;;;;;;0.00;0.00;;;;;;;9.90;68.47;103319.72;7359853;19;20006;-59
2021/12/18 01:33:26;;;;;;;0.00;0.00;;;;;;;9.88;68.64;103326.63;7363892;19;20014;-57
2021/12/18 01:35:53;;;;;;;0.10;0.10;;;;;;;9.86;68.68;103317.88;7367231;19;20313;-58
2021/12/18 01:38:20;;;;;;;0.00;0.00;;;;;;;9.86;68.91;103323.09;7363931;19;20027;-58
2021/12/18 01:40:45;;;;;;;0.00;0.00;;;;;;;9.86;69.25;103320.50;7357793;19;20033;-59
2021/12/18 01:54:00;;;;;;;0.00;0.00;;;;;;;9.84;69.35;103320.47;7363427;19;20035;-57
2021/12/18 01:56:27;;;;;;;0.10;0.10;;;;;;;9.85;69.22;103321.34;7368756;19;20765;-58
2021/12/18 01:58:54;;;;;;;0.00;0.00;;;;;;;9.85;69.10;103326.56;7365206;19;20565;-57
2021/12/18 02:01:21;;;;;;;0.00;0.00;;;;;;;9.83;69.20;103323.94;7359331;19;20022;-58
2021/12/18 02:03:47;;;;;;;0.00;0.00;;;;;;;9.84;68.99;103324.81;7365332;19;20094;-57
2021/12/18 02:06:13;;;;;;;0.00;0.00;;;;;;;9.83;69.25;103330.84;7360803;19;20028;-58
2021/12/18 02:08:39;;;;;;;0.05;0.05;;;;;;;9.84;69.46;103324.81;7363803;19;20011;-59
2021/12/18 02:21:53;;;;;;;0.00;0.00;;;;;;;9.83;69.33;103325.63;7364736;19;20050;-57
2021/12/18 02:24:21;;;;;;;0.10;0.10;;;;;;;9.83;69.22;103329.16;7364904;19;20018;-58
2021/12/18 02:26:47;;;;;;;0.00;0.00;;;;;;;9.80;69.42;103312.53;7365417;19;20450;-58
2021/12/18 02:29:15;;;;;;;0.00;0.00;;;;;;;9.82;69.33;103318.66;7362060;19;20038;-58
2021/12/18 02:31:41;;;;;;;0.00;0.00;;;;;;;9.81;69.28;103309.94;7365487;19;20018;-58
2021/12/18 02:34:14;;;;;;;0.00;0.00;;;;;;;9.83;69.44;103320.41;7367019;19;20035;-58
2021/12/18 02:36:47;;;;;;;0.00;0.00;;;;;;;9.85;69.48;103310.91;7366162;19;20018;-58
2021/12/18 02:39:22;;;;;;;0.00;0.00;;;;;;;9.84;69.66;103309.16;7362576;19;20014;-58
2021/12/18 02:42:08;;;;;;;0.00;0.00;;;;;;;9.84;69.53;103309.16;7367072;19;21434;-58
2021/12/18 02:44:34;;;;;;;0.00;0.00;;;;;;;9.85;69.51;103305.69;7365541;19;20635;-59
2021/12/18 02:46:59;;;;;;;0.00;0.00;;;;;;;9.85;69.37;103305.69;7366934;19;20006;-58
2021/12/18 02:49:25;;;;;;;0.00;0.00;;;;;;;9.84;69.60;103302.19;7362660;19;20345;-58
2021/12/18 02:51:51;;;;;;;0.10;0.10;;;;;;;9.84;69.71;103303.94;7364871;19;20123;-58
2021/12/18 02:54:16;;;;;;;0.00;0.00;;;;;;;9.83;69.52;103296.91;7363629;19;20474;-58
2021/12/18 02:56:42;;;;;;;0.10;0.10;;;;;;;9.82;69.99;103290.81;7364108;19;20025;-58
2021/12/18 02:59:09;;;;;;;0.00;0.00;;;;;;;9.79;69.70;103287.28;7353689;19;20029;-57
2021/12/18 03:01:37;;;;;;;0.00;0.00;;;;;;;9.83;70.07;103297.84;7366599;19;20015;-57
2021/12/18 03:04:13;;;;;;;0.00;0.00;;;;;;;9.82;70.22;103301.25;7363377;19;20078;-58
2021/12/18 03:06:43;;;;;;;0.10;0.10;;;;;;;9.76;70.20;103292.44;7358262;19;20814;-58
2021/12/18 03:25:18;;;;;;;0.10;0.10;;;;;;;9.80;70.37;103291.66;7367300;19;20093;-57
2021/12/18 03:27:43;;;;;;;0.08;0.08;;;;;;;9.74;70.01;103286.31;7359621;19;20022;-56
2021/12/18 03:30:10;;;;;;;0.05;0.05;;;;;;;9.68;70.12;103270.50;7366203;19;20014;-58
2021/12/18 03:32:35;;;;;;;0.00;0.00;;;;;;;9.80;70.18;103291.66;7366496;19;20439;-57
2021/12/18 03:35:01;;;;;;;0.10;0.10;;;;;;;9.76;70.57;103279.38;7367065;19;20014;-59
2021/12/18 03:37:26;;;;;;;0.00;0.00;;;;;;;9.82;70.25;103284.72;7362907;19;20013;-58
2021/12/18 03:39:52;;;;;;;0.00;0.00;;;;;;;9.82;70.17;103284.72;7364334;19;20006;-58
2021/12/18 03:42:17;;;;;;;0.00;0.00;;;;;;;9.70;70.41;103258.38;7361581;19;20010;-57
2021/12/18 03:44:43;;;;;;;0.00;0.00;;;;;;;9.84;70.34;103277.84;7366088;19;20022;-59
2021/12/18 03:47:08;;;;;;;0.00;0.00;;;;;;;9.86;70.60;103276.13;7362768;19;20508;-58
2021/12/18 03:49:34;;;;;;;0.00;0.00;;;;;;;9.74;70.43;103261.09;7363310;19;20021;-57
2021/12/18 03:52:00;;;;;;;0.00;0.00;;;;;;;9.87;70.28;103278.75;7363852;19;20018;-57
2021/12/18 03:54:26;;;;;;;0.00;0.00;;;;;;;9.77;70.53;103249.81;7354218;19;20630;-58
2021/12/18 03:56:51;;;;;;;0.00;0.00;;;;;;;9.90;70.63;103262.28;7362270;19;20015;-58
2021/12/18 03:59:17;;;;;;;0.00;0.00;;;;;;;9.89;70.41;103260.53;7355587;19;20078;-58
2021/12/18 04:01:43;;;;;;;0.00;0.00;;;;;;;9.90;70.33;103256.19;7365148;19;20027;-57
2021/12/18 04:04:08;;;;;;;0.08;0.08;;;;;;;9.91;70.18;103255.34;7360453;19;20014;-57
2021/12/18 04:06:37;;;;;;;0.10;0.10;;;;;;;9.90;70.59;103257.06;7348666;19;20745;-57
2021/12/18 04:09:03;;;;;;;0.00;0.00;;;;;;;9.90;70.34;103262.28;7351650;19;20463;-58
2021/12/18 04:11:28;;;;;;;0.00;0.00;;;;;;;9.88;70.56;103259.66;7358711;19;20423;-58
2021/12/18 04:13:54;;;;;;;0.08;0.08;;;;;;;9.88;70.21;103256.13;7358742;19;20010;-56
2021/12/18 04:16:21;;;;;;;0.00;0.00;;;;;;;9.86;70.09;103252.63;7362580;19;20074;-59
2021/12/18 04:18:46;;;;;;;0.00;0.00;;;;;;;9.53;70.45;103197.97;7349176;19;20007;-58
2021/12/18 04:21:12;;;;;;;0.10;0.10;;;;;;;9.80;70.54;103249.91;7362429;19;20050;-56
2021/12/18 04:23:37;;;;;;;0.03;0.03;;;;;;;9.78;70.43;103247.28;7361119;19;20015;-57
2021/12/18 04:26:02;;;;;;;0.10;0.10;;;;;;;9.76;70.43;103258.50;7361044;19;20015;-57
2021/12/18 04:28:28;;;;;;;0.10;0.10;;;;;;;9.73;70.37;103242.78;7356634;19;20018;-59
2021/12/18 04:30:54;;;;;;;0.00;0.00;;;;;;;9.68;70.51;103249.63;7361558;19;20397;-58
2021/12/18 04:33:19;;;;;;;0.00;0.00;;;;;;;9.62;70.45;103243.41;7355849;19;20035;-58
2021/12/18 04:35:45;;;;;;;0.00;0.00;;;;;;;9.53;70.15;103240.63;7333528;19;20010;-57
2021/12/18 04:38:10;;;;;;;0.00;0.00;;;;;;;9.49;70.33;103251.84;7371594;19;20024;-57
2021/12/18 04:40:36;;;;;;;0.00;0.00;;;;;;;9.35;70.35;103222.81;7369832;19;20019;-58
2021/12/18 04:43:03;;;;;;;0.00;0.00;;;;;;;9.37;70.02;103246.31;7370565;19;20014;-57
2021/12/18 04:45:29;;;;;;;0.00;0.00;;;;;;;9.30;70.13;103242.69;7369641;19;20014;-57
2021/12/18 04:47:56;;;;;;;0.10;0.10;;;;;;;9.23;70.25;103243.41;7364384;19;20010;-58
2021/12/18 04:50:22;;;;;;;0.10;0.10;;;;;;;9.17;70.09;103245.84;7369531;19;20014;-58
2021/12/18 04:52:48;;;;;;;0.08;0.08;;;;;;;9.03;70.37;103232.50;7367165;19;20017;-58
2021/12/18 04:55:13;;;;;;;0.00;0.00;;;;;;;9.06;71.05;103240.38;7369157;19;20010;-58
2021/12/18 04:57:39;;;;;;;0.00;0.00;;;;;;;9.02;70.80;103243.78;7363816;19;20619;-58
2021/12/18 05:00:08;;;;;;;0.00;0.00;;;;;;;8.99;70.96;103246.31;7365770;19;20489;-58
2021/12/18 05:02:40;;;;;;;0.00;0.00;;;;;;;8.99;71.28;103253.25;7369581;19;20093;-57
2021/12/18 05:05:07;;;;;;;0.00;0.00;;;;;;;8.98;71.03;103254.97;7360722;19;20756;-58
2021/12/18 05:07:32;;;;;;;0.00;0.00;;;;;;;8.96;71.03;103259.25;7367980;19;20002;-58
2021/12/18 05:09:58;;;;;;;0.00;0.00;;;;;;;8.95;70.99;103260.09;7366959;19;20010;-59
2021/12/18 05:12:24;;;;;;;0.00;0.00;;;;;;;8.94;71.46;103258.34;7370111;19;20017;-56
2021/12/18 05:14:49;;;;;;;0.00;0.00;;;;;;;8.95;71.72;103254.88;7364070;19;20470;-58
2021/12/18 05:17:15;;;;;;;0.00;0.00;;;;;;;8.95;71.90;103254.88;7366738;19;20037;-58
2021/12/18 05:19:40;;;;;;;0.00;0.00;;;;;;;8.96;71.89;103251.44;7367070;19;20014;-57
2021/12/18 05:22:06;;;;;;;0.00;0.00;;;;;;;8.98;71.78;103244.53;7365041;19;20007;-57
2021/12/18 05:24:32;;;;;;;0.10;0.10;;;;;;;8.99;71.88;103246.31;7369392;19;20038;-56
2021/12/18 05:26:58;;;;;;;0.00;0.00;;;;;;;9.01;71.57;103248.94;7365806;19;20095;-57
2021/12/18 05:29:23;;;;;;;0.00;0.00;;;;;;;9.02;71.72;103249.00;7365431;19;20085;-56
2021/12/18 05:31:49;;;;;;;0.00;0.00;;;;;;;8.90;71.82;103217.41;7367745;19;20012;-59
2021/12/18 05:34:23;;;;;;;0.00;0.00;;;;;;;9.05;71.71;103241.22;7360467;19;20029;-59
2021/12/18 05:39:23;;;;;;;0.00;0.00;;;;;;;9.09;71.58;103243.06;7369358;19;20002;-59
2021/12/18 05:41:50;;;;;;;0.00;0.00;;;;;;;9.02;71.24;103233.34;7366879;19;20023;-58
2021/12/18 05:44:17;;;;;;;0.10;0.10;;;;;;;9.08;71.12;103240.44;7369064;19;20428;-58
2021/12/18 05:46:44;;;;;;;0.03;0.03;;;;;;;9.06;71.28;103243.00;7366537;19;20002;-58
2021/12/18 05:49:10;;;;;;;0.00;0.00;;;;;;;8.96;71.44;103225.38;7359063;19;20869;-58
2021/12/18 05:51:36;;;;;;;0.00;0.00;;;;;;;9.03;71.40;103248.16;7366229;19;20031;-58
2021/12/18 05:54:02;;;;;;;0.00;0.00;;;;;;;8.96;71.36;103251.44;7363070;19;20752;-58
2021/12/18 05:56:27;;;;;;;0.10;0.10;;;;;;;8.84;71.37;103231.16;7363525;19;20391;-58
2021/12/18 05:58:53;;;;;;;0.00;0.00;;;;;;;8.88;71.29;103242.56;7364634;19;20014;-57
2021/12/18 06:01:19;;;;;;;0.00;0.00;;;;;;;8.64;71.53;103206.34;7366186;19;20046;-57
2021/12/18 06:03:45;;;;;;;0.00;0.00;;;;;;;8.97;71.80;103255.81;7362249;19;20465;-57
2021/12/18 06:06:11;;;;;;;0.00;0.00;;;;;;;8.98;72.02;103254.97;7366773;19;20388;-57
2021/12/18 06:08:38;;;;;;;0.00;0.00;;;;;;;8.91;71.62;103242.63;7337017;19;20478;-58
2021/12/18 06:11:11;;;;;;;0.00;0.00;;;;;;;9.02;72.10;103256.81;7358863;19;20010;-56
2021/12/18 06:13:36;;;;;;;0.03;0.03;;;;;;;9.05;72.17;103256.00;7366347;19;20031;-58
2021/12/18 06:16:05;;;;;;;0.00;0.00;;;;;;;9.08;72.19;103254.34;7367293;19;20016;-58
2021/12/18 06:18:35;;;;;;;0.00;0.00;;;;;;;9.12;71.84;103246.59;7362687;19;20021;-56
2021/12/18 06:21:00;;;;;;;0.00;0.00;;;;;;;9.15;71.95;103246.69;7364777;19;20025;-58
2021/12/18 06:23:26;;;;;;;0.00;0.00;;;;;;;9.19;72.30;103253.72;7366981;19;20010;-58
2021/12/18 06:25:51;;;;;;;0.00;0.00;;;;;;;9.22;71.92;103252.06;7360940;19;20332;-59
2021/12/18 06:28:17;;;;;;;0.00;0.00;;;;;;;9.25;72.10;103254.75;7367745;19;20092;-58
2021/12/18 06:30:42;;;;;;;0.00;0.00;;;;;;;9.29;72.34;103258.31;7366075;19;20006;-58
2021/12/18 06:33:08;;;;;;;0.00;0.00;;;;;;;9.32;71.88;103258.38;7363938;19;20015;-58
2021/12/18 06:35:33;;;;;;;0.00;0.00;;;;;;;9.35;72.10;103251.50;7364931;19;20043;-57
2021/12/18 06:37:59;;;;;;;0.00;0.00;;;;;;;9.38;72.08;103255.94;7364434;19;20014;-57
2021/12/18 06:40:24;;;;;;;0.00;0.00;;;;;;;9.41;72.01;103245.56;7366668;19;20011;-58
2021/12/18 06:42:50;;;;;;;0.00;0.00;;;;;;;9.40;72.41;103242.91;7360690;19;20014;-57
2021/12/18 06:45:15;;;;;;;0.00;0.00;;;;;;;9.47;72.36;103255.25;7365565;19;20003;-58
2021/12/18 06:47:41;;;;;;;0.00;0.00;;;;;;;9.46;72.39;103248.28;7365761;19;20010;-58
2021/12/18 06:50:07;;;;;;;0.10;0.10;;;;;;;9.52;72.33;103254.50;7360458;19;20014;-56
2021/12/18 06:52:33;;;;;;;0.05;0.05;;;;;;;9.44;72.55;103229.97;7367190;19;20029;-58
2021/12/18 06:54:58;;;;;;;0.00;0.00;;;;;;;9.56;72.39;103256.34;7365299;19;20466;-57
2021/12/18 06:57:23;;;;;;;0.00;0.00;;;;;;;9.58;72.72;103259.00;7363581;19;20026;-57
2021/12/18 06:59:52;;;;;;;0.00;0.00;;;;;;;9.64;72.61;103258.25;7361992;19;20018;-58
2021/12/18 07:02:19;;;;;;;0.00;0.00;;;;;;;9.54;72.22;103247.59;7367580;19;20007;-58
2021/12/18 07:04:45;;;;;;;0.00;0.00;;;;;;;9.67;72.45;103263.50;7363996;19;20574;-58
2021/12/18 07:07:10;;;;;;;0.00;0.00;;;;;;;9.70;72.86;103258.38;7362335;19;20013;-59
2021/12/18 07:09:36;;;;;;;0.00;0.00;;;;;;;9.61;72.55;103236.44;7363472;19;20010;-58
2021/12/18 07:12:01;;;;;;;0.00;0.00;;;;;;;9.74;72.33;103255.00;7353456;19;20020;-57
2021/12/18 07:14:27;;;;;;;0.05;0.05;;;;;;;9.68;72.53;103241.78;7356225;19;20068;-59
2021/12/18 07:16:53;;;;;;;0.10;0.10;;;;;;;9.78;72.63;103247.28;7360060;19;20014;-58
2021/12/18 07:19:19;;;;;;;0.00;0.00;;;;;;;9.82;72.62;103258.63;7353432;19;20014;-57
2021/12/18 07:21:44;;;;;;;0.10;0.10;;;;;;;9.83;72.94;103255.16;7361221;19;20017;-58
2021/12/18 07:24:10;;;;;;;0.10;0.10;;;;;;;9.86;72.73;103255.25;7365204;19;20003;-58
2021/12/18 07:26:35;;;;;;;0.10;0.10;;;;;;;9.86;72.38;103250.03;7362259;19;20007;-58
2021/12/18 07:29:01;;;;;;;0.10;0.10;;;;;;;9.86;72.59;103261.34;7357989;19;20038;-58
2021/12/18 07:31:27;;;;;;;0.00;0.00;;;;;;;9.90;72.84;103259.69;7365907;19;20021;-58
2021/12/18 07:33:53;;;;;;;0.00;0.00;;;;;;;9.90;72.92;103259.69;7361933;19;20003;-57
2021/12/18 07:36:18;;;;;;;0.00;0.00;;;;;;;9.92;72.74;103259.72;7352854;19;20029;-58
2021/12/18 07:38:44;;;;;;;0.00;0.00;;;;;;;9.92;72.47;103252.75;7358143;19;20018;-58
2021/12/18 07:41:11;;;;;;;0.00;0.00;;;;;;;9.93;72.79;103246.69;7362975;19;20531;-58
2021/12/18 07:43:36;;;;;;;0.00;0.00;;;;;;;9.93;72.93;103248.41;7354509;19;20015;-58
2021/12/18 07:46:03;;;;;;;0.00;0.00;;;;;;;9.92;72.84;103255.38;7360577;19;20017;-57
2021/12/18 07:48:28;;;;;;;0.08;0.08;;;;;;;9.91;72.85;103253.59;7360607;19;20509;-58
2021/12/18 07:50:54;;;;;;;0.10;0.10;;;;;;;9.94;72.78;103261.53;7362671;19;20086;-58
2021/12/18 07:53:21;;;;;;;0.00;0.00;;;;;;;9.94;72.63;103258.91;7350422;19;20865;-56
2021/12/18 07:55:47;;;;;;;0.00;0.00;;;;;;;9.95;72.98;103260.66;7362761;19;20052;-59
2021/12/18 07:58:12;;;;;;;0.00;0.00;;;;;;;9.85;72.80;103246.53;7361684;19;20384;-57
2021/12/18 08:00:39;;;;;;;0.10;0.10;;;;;;;9.97;72.75;103269.41;7347996;19;20580;-58
2021/12/18 08:03:04;;;;;;;0.00;0.00;;;;;;;9.99;72.92;103272.06;7361909;19;20086;-58
2021/12/18 08:05:29;;;;;;;0.00;0.00;;;;;;;9.99;73.04;103262.50;7363773;19;20846;-59
2021/12/18 08:07:55;;;;;;;0.00;0.00;;;;;;;10.00;72.75;103259.03;7348065;19;20042;-57
2021/12/18 08:10:20;;;;;;;0.00;0.00;;;;;;;9.95;72.96;103245.00;7362559;19;20010;-58
2021/12/18 08:12:46;;;;;;;0.00;0.00;;;;;;;10.00;73.19;103248.59;7363482;19;20010;-58
2021/12/18 08:15:11;;;;;;;0.00;0.00;;;;;;;10.02;73.17;103259.94;7362223;19;20021;-59
2021/12/18 08:17:37;;;;;;;0.00;0.00;;;;;;;10.02;73.19;103259.94;7368394;19;20055;-58
2021/12/18 08:20:04;;;;;;;0.00;0.00;;;;;;;10.03;72.96;103264.28;7359682;19;20053;-59
2021/12/18 08:22:29;;;;;;;0.00;0.00;;;;;;;10.03;73.07;103269.50;7361042;19;20019;-58
2021/12/18 08:24:55;;;;;;;0.00;0.00;;;;;;;10.04;73.21;103270.44;7370559;19;20082;-59
2021/12/18 08:27:21;;;;;;;0.00;0.00;;;;;;;10.05;73.19;103272.19;7362657;19;20093;-57
2021/12/18 08:29:46;;;;;;;0.00;0.00;;;;;;;10.04;72.86;103268.69;7369664;19;20954;-58
2021/12/18 08:32:12;;;;;;;0.00;0.00;;;;;;;9.94;73.02;103258.91;7355853;19;20029;-57
2021/12/18 08:34:38;;;;;;;0.00;0.00;;;;;;;10.06;73.09;103273.94;7363922;19;20015;-58
2021/12/18 08:37:03;;;;;;;0.00;0.00;;;;;;;10.05;72.83;103274.78;7370258;19;20027;-58
2021/12/18 08:39:29;;;;;;;0.10;0.10;;;;;;;10.07;73.17;103276.56;7367650;19;20021;-58
2021/12/18 08:41:55;;;;;;;0.00;0.00;;;;;;;10.08;72.77;103273.09;7365977;19;20010;-56
2021/12/18 08:44:20;;;;;;;0.00;0.00;;;;;;;9.99;72.97;103262.50;7368251;19;20007;-58
2021/12/18 08:46:46;;;;;;;0.00;0.00;;;;;;;10.04;73.10;103270.44;7353912;19;20033;-58
2021/12/18 08:49:11;;;;;;;0.00;0.00;;;;;;;10.09;72.79;103280.09;7364389;19;20018;-59
2021/12/18 08:51:38;;;;;;;0.03;0.03;;;;;;;10.10;73.15;103284.47;7368799;19;20018;-57
2021/12/18 08:54:05;;;;;;;0.00;0.00;;;;;;;10.10;72.94;103281.00;7361887;19;20016;-57
2021/12/18 08:56:32;;;;;;;0.00;0.00;;;;;;;10.12;73.24;103289.72;7364349;19;20010;-58
2021/12/18 08:59:00;;;;;;;0.00;0.00;;;;;;;10.11;72.99;103293.19;7358378;19;20500;-60
2021/12/18 09:01:26;;;;;;;0.00;0.00;;;;;;;10.11;73.29;103286.22;7367463;19;20028;-58
2021/12/18 09:03:52;;;;;;;0.00;0.00;;;;;;;10.11;73.06;103294.06;7360960;19;20086;-59
2021/12/18 09:06:19;;;;;;;0.00;0.00;;;;;;;10.12;73.06;103295.81;7361549;19;20642;-58
2021/12/18 09:08:45;;;;;;;0.00;0.00;;;;;;;10.13;73.05;103291.47;7346428;19;20025;-57
2021/12/18 09:11:10;;;;;;;0.00;0.00;;;;;;;10.11;73.02;103296.69;7364860;19;20047;-57
2021/12/18 09:13:36;;;;;;;0.00;0.00;;;;;;;10.13;72.97;103292.34;7364259;19;20002;-58
2021/12/18 09:16:02;;;;;;;0.10;0.10;;;;;;;10.14;73.22;103298.47;7366087;19;20010;-57
2021/12/18 09:18:27;;;;;;;0.00;0.00;;;;;;;10.14;72.96;103286.31;7364802;19;20018;-58
2021/12/18 09:20:53;;;;;;;0.00;0.00;;;;;;;10.15;73.39;103300.25;7364285;19;20011;-58
2021/12/18 09:23:21;;;;;;;0.00;0.00;;;;;;;10.14;72.95;103304.59;7364896;19;20022;-57
2021/12/18 09:25:46;;;;;;;0.00;0.00;;;;;;;10.13;73.30;103300.19;7360626;19;20026;-58
2021/12/18 09:28:12;;;;;;;0.00;0.00;;;;;;;10.08;73.14;103293.97;7366144;19;20101;-58
2021/12/18 09:30:38;;;;;;;0.00;0.00;;;;;;;10.13;73.51;103305.41;7362613;19;20010;-58
2021/12/18 09:33:03;;;;;;;0.00;0.00;;;;;;;10.14;73.68;103304.59;7364494;19;20022;-59
2021/12/18 09:35:29;;;;;;;0.10;0.10;;;;;;;10.13;73.41;103302.78;7359517;19;19999;-58
2021/12/18 09:37:55;;;;;;;0.00;0.00;;;;;;;10.03;73.51;103285.19;7365547;19;20031;-59
2021/12/18 09:40:20;;;;;;;0.10;0.10;;;;;;;10.20;73.14;103308.16;7362876;19;20055;-58
2021/12/18 09:42:46;;;;;;;0.05;0.05;;;;;;;10.22;73.33;103311.69;7365112;19;20014;-58
2021/12/18 09:45:14;;;;;;;0.00;0.00;;;;;;;10.20;73.19;103302.94;7365888;19;20006;-59
2021/12/18 09:47:41;;;;;;;0.10;0.10;;;;;;;10.26;73.40;103309.19;7362319;19;20021;-58
2021/12/18 09:50:07;;;;;;;0.10;0.10;;;;;;;10.29;73.29;103308.38;7357378;19;20094;-59
2021/12/18 09:52:35;;;;;;;0.00;0.00;;;;;;;10.31;73.50;103304.06;7367147;19;20694;-58
2021/12/18 09:55:00;;;;;;;0.10;0.10;;;;;;;10.31;73.45;103310.19;7354853;19;20027;-58
2021/12/18 09:57:26;;;;;;;0.00;0.00;;;;;;;10.33;73.47;103305.84;7364401;19;20031;-57
2021/12/18 09:59:52;;;;;;;0.00;0.00;;;;;;;10.33;73.09;103304.97;7358218;19;20138;-57
2021/12/18 10:02:17;;;;;;;0.00;0.00;;;;;;;10.31;73.01;103301.47;7367350;19;20895;-58
2021/12/18 10:04:44;;;;;;;0.00;0.00;;;;;;;10.40;73.43;103306.88;7360398;19;20497;-57
2021/12/18 10:07:23;;;;;;;0.00;0.00;;;;;;;10.47;72.76;103307.88;7360855;19;20007;-58
2021/12/18 10:09:52;;;;;;;0.10;0.10;;;;;;;10.44;72.97;103306.09;7356846;19;20003;-58
2021/12/18 10:12:23;;;;;;;0.00;0.00;;;;;;;10.51;72.95;103317.53;7360025;19;20002;-59
2021/12/18 10:14:52;;;;;;;0.00;0.00;;;;;;;10.52;73.29;103320.16;7357781;19;20019;-56
2021/12/18 10:17:28;;;;;;;0.00;0.00;;;;;;;10.56;73.22;103322.00;7359558;19;20014;-57
2021/12/18 10:20:21;;;;;;;0.00;0.00;;;;;;;10.61;72.65;103312.50;7362149;19;20018;-58
2021/12/18 10:22:51;;;;;;;0.00;0.00;;;;;;;10.60;72.92;103315.97;7257326;19;2005108;-56
2021/12/18 10:25:31;;;;;;;0.00;0.00;;;;;;;10.64;72.88;103322.13;7361212;19;20027;-57
2021/12/18 10:28:18;;;;;;;0.08;0.08;;;;;;;10.67;72.98;103316.09;7359441;19;20105;-59
2021/12/18 10:30:51;;;;;;;;;;;;;;;10.72;72.38;103317.06;7360590;19;20018;-59
2021/12/18 10:33:17;;;;;;;0.03;0.03;;;;;;;10.59;72.72;103293.31;7357129;19;19931;-58
2021/12/18 10:35:53;;;;;;;0.00;0.00;;;;;;;10.73;72.56;103313.59;7356271;19;20006;-58
2021/12/18 10:38:46;;;;;;;0.00;0.00;;;;;;;10.75;72.57;103304.94;7362763;19;20018;-57
2021/12/18 10:41:34;;;;;;;0.10;0.10;;;;;;;10.77;72.50;103302.34;7253335;19;2004569;-58
2021/12/18 10:44:10;;;;;;;0.00;0.00;;;;;;;10.76;72.70;103300.59;7363900;19;20006;-57
2021/12/18 10:46:38;;;;;;;0.10;0.10;;;;;;;10.78;73.17;103299.75;7357817;19;20021;-57
2021/12/18 10:49:15;;;;;;;0.00;0.00;;;;;;;10.87;73.09;103296.41;7358311;19;20018;-57
2021/12/18 10:51:42;;;;;;;0.00;0.00;;;;;;;10.90;72.79;103304.31;7359680;19;20014;-58
2021/12/18 10:54:35;;;;;;;0.00;0.00;;;;;;;10.99;72.88;103294.00;7365443;19;20090;-55
2021/12/18 10:57:00;;;;;;;0.00;0.00;;;;;;;11.00;73.13;103285.34;7360468;19;20086;-58
2021/12/18 10:59:31;;;;;;;0.00;0.00;;;;;;;11.05;72.98;103281.06;7365134;19;20027;-58
2021/12/18 11:02:05;;;;;;;0.00;0.00;;;;;;;11.15;72.95;103274.22;7360013;19;20010;-57
2021/12/18 11:04:38;;;;;;;0.05;0.05;;;;;;;11.15;72.88;103267.28;7353350;19;20130;-58
2021/12/18 11:07:26;;;;;;;0.00;0.00;;;;;;;11.29;72.12;103292.75;7361570;19;20034;-57
2021/12/18 11:15:20;;;;;;;0.10;0.10;;;;;;;11.35;72.30;103299.00;7351358;19;20013;-58
2021/12/18 11:17:47;;;;;;;0.00;0.00;;;;;;;11.36;72.37;103298.13;7358967;19;20015;-59
2021/12/18 11:20:12;;;;;;;0.03;0.03;;;;;;;11.37;72.26;103299.00;7358180;19;20018;-59
2021/12/18 11:22:39;;;;;;;0.00;0.00;;;;;;;11.35;71.81;103299.00;7357989;19;20010;-59
2021/12/18 11:25:10;;;;;;;0.00;0.00;;;;;;;11.41;71.87;103308.66;7360435;19;20010;-58
2021/12/18 11:27:37;;;;;;;0.10;0.10;;;;;;;11.39;71.60;103305.13;7358728;19;20455;-57
2021/12/18 11:30:08;;;;;;;0.00;0.00;;;;;;;11.36;71.75;103303.34;7356981;19;20361;-57
2021/12/18 11:32:39;;;;;;;0.00;0.00;;;;;;;11.39;71.92;103316.47;7357096;19;20047;-57
2021/12/18 11:35:08;;;;;;;0.10;0.10;;;;;;;11.38;71.79;103303.38;7353212;19;20067;-57
2021/12/18 11:37:54;;;;;;;0.10;0.10;;;;;;;11.41;71.52;103300.81;7359754;19;20039;-58
2021/12/18 11:40:24;;;;;;;0.08;0.08;;;;;;;11.40;72.02;103304.25;7359397;19;20031;-57
2021/12/18 11:42:51;;;;;;;0.00;0.00;;;;;;;11.40;71.63;103301.66;7360672;19;20028;-58
2021/12/18 11:45:16;;;;;;;0.10;0.10;;;;;;;11.32;71.87;103290.19;7361049;19;20487;-58
2021/12/18 11:47:53;;;;;;;0.00;0.00;;;;;;;11.41;71.60;103295.59;7364817;19;20090;-59
2021/12/18 11:50:25;;;;;;;0.10;0.10;;;;;;;11.46;71.68;103295.66;7365037;19;20035;-58
2021/12/18 11:53:01;;;;;;;0.10;0.10;;;;;;;11.46;71.38;103298.28;7364381;19;20021;-58
2021/12/18 11:55:34;;;;;;;0.00;0.00;;;;;;;11.48;71.43;103288.69;7358774;19;20044;-57
2021/12/18 11:58:11;;;;;;;0.10;0.10;;;;;;;11.26;71.77;103248.25;7366531;19;20010;-57
2021/12/18 12:00:36;;;;;;;0.00;0.00;;;;;;;11.50;71.27;103287.84;7358725;19;20018;-58
2021/12/18 12:03:05;;;;;;;0.10;0.10;;;;;;;11.54;71.60;103284.41;7363161;19;20018;-59
2021/12/18 12:05:48;;;;;;;0.10;0.10;;;;;;;11.59;71.13;103290.59;7362744;19;20078;-58
2021/12/18 12:08:17;;;;;;;0.00;0.00;;;;;;;11.61;71.10;103288.91;7361079;19;20132;-58
2021/12/18 12:11:15;;;;;;;0.00;0.00;;;;;;;11.68;71.25;103289.88;7361399;19;20031;-58
2021/12/18 12:13:52;;;;;;;0.00;0.00;;;;;;;11.57;71.02;103263.53;7259923;19;2005716;-58
2021/12/18 12:16:18;;;;;;;0.10;0.10;;;;;;;11.67;70.90;103280.25;7365843;19;20081;-58
2021/12/18 12:19:19;;;;;;;0.00;0.00;;;;;;;11.75;70.88;103282.97;7366711;19;20027;-59
2021/12/18 12:21:47;;;;;;;0.00;0.00;;;;;;;11.76;70.89;103284.72;7263816;19;2004254;-58
2021/12/18 12:24:19;;;;;;;0.00;0.00;;;;;;;11.78;70.68;103278.66;7361908;19;20021;-58
2021/12/18 12:26:46;;;;;;;0.10;0.10;;;;;;;11.79;70.78;103263.84;7353632;19;20009;-57
2021/12/18 12:29:13;;;;;;;0.00;0.00;;;;;;;11.82;70.54;103279.63;7363918;19;20583;-58